sensor_id;sensor_type;location;lat;lon;timestamp;temperature;humidity
25640;DHT22;13497;48.322;16.204;2023-08-31T00:00:11;16.50;99.90
25640;DHT22;13497;48.322;16.204;2023-08-31T00:02:38;16.50;99.90
25640;DHT22;13497;48.322;16.204;2023-08-31T00:05:05;16.50;99.90
25640;DHT22;13497;48.322;16.204;2023-08-31T00:07:31;16.60;99.90
25640;DHT22;13497;48.322;16.204;2023-08-31T00:09:57;16.60;99.90
25640;DHT22;13497;48.322;16.204;2023-08-31T00:12:24;16.60;99.90
25640;DHT22;13497;48.322;16.204;2023-08-31T00:14:50;16.50;99.90
25640;DHT22;13497;48.322;16.204;2023-08-31T00:17:16;16.50;99.90
25640;DHT22;13497;48.322;16.204;2023-08-31T00:19:43;16.40;99.90
25640;DHT22;13497;48.322;16.204;2023-08-31T00:22:09;16.40;99.90
25640;DHT22;13497;48.322;16.204;2023-08-31T00:24:34;16.40;99.90
25640;DHT22;13497;48.322;16.204;2023-08-31T00:27:03;16.50;99.90
25640;DHT22;13497;48.322;16.204;2023-08-31T00:29:32;16.40;99.90
25640;DHT22;13497;48.322;16.204;2023-08-31T00:31:57;16.50;99.90
25640;DHT22;13497;48.322;16.204;2023-08-31T00:34:23;16.40;99.90
25640;DHT22;13497;48.322;16.204;2023-08-31T00:36:49;16.40;99.90
25640;DHT22;13497;48.322;16.204;2023-08-31T00:39:15;16.40;99.90
25640;DHT22;13497;48.322;16.204;2023-08-31T00:41:43;16.40;99.90
25640;DHT22;13497;48.322;16.204;2023-08-31T00:44:14;16.40;99.90
25640;DHT22;13497;48.322;16.204;2023-08-31T00:46:40;16.30;99.90
25640;DHT22;13497;48.322;16.204;2023-08-31T00:49:07;16.40;99.90
25640;DHT22;13497;48.322;16.204;2023-08-31T00:51:34;16.40;99.90
25640;DHT22;13497;48.322;16.204;2023-08-31T00:53:59;16.30;99.90
25640;DHT22;13497;48.322;16.204;2023-08-31T00:56:25;16.30;99.90
25640;DHT22;13497;48.322;16.204;2023-08-31T00:58:52;16.40;99.90
25640;DHT22;13497;48.322;16.204;2023-08-31T01:01:30;16.30;99.90
25640;DHT22;13497;48.322;16.204;2023-08-31T01:04:18;16.30;99.90
25640;DHT22;13497;48.322;16.204;2023-08-31T01:09:31;16.10;99.90
25640;DHT22;13497;48.322;16.204;2023-08-31T01:14:44;16.20;99.90
25640;DHT22;13497;48.322;16.204;2023-08-31T01:17:14;16.20;99.90
25640;DHT22;13497;48.322;16.204;2023-08-31T01:19:51;16.20;99.90
25640;DHT22;13497;48.322;16.204;2023-08-31T01:24:53;16.20;99.90
25640;DHT22;13497;48.322;16.204;2023-08-31T01:27:19;16.20;99.90
25640;DHT22;13497;48.322;16.204;2023-08-31T01:29:45;16.20;99.90
25640;DHT22;13497;48.322;16.204;2023-08-31T01:32:11;16.20;99.90
25640;DHT22;13497;48.322;16.204;2023-08-31T01:34:37;16.10;99.90
25640;DHT22;13497;48.322;16.204;2023-08-31T01:37:12;16.10;99.90
25640;DHT22;13497;48.322;16.204;2023-08-31T01:39:52;16.10;99.90
25640;DHT22;13497;48.322;16.204;2023-08-31T01:42:18;16.20;99.90
25640;DHT22;13497;48.322;16.204;2023-08-31T01:44:46;16.10;99.90
25640;DHT22;13497;48.322;16.204;2023-08-31T01:47:14;16.10;99.90
25640;DHT22;13497;48.322;16.204;2023-08-31T01:49:41;16.10;99.90
25640;DHT22;13497;48.322;16.204;2023-08-31T01:52:09;16.10;99.90
25640;DHT22;13497;48.322;16.204;2023-08-31T01:54:35;16.10;99.90
25640;DHT22;13497;48.322;16.204;2023-08-31T01:57:03;16.00;99.90
25640;DHT22;13497;48.322;16.204;2023-08-31T01:59:28;16.00;99.90
25640;DHT22;13497;48.322;16.204;2023-08-31T02:01:54;16.00;99.90
25640;DHT22;13497;48.322;16.204;2023-08-31T02:04:20;15.90;99.90
25640;DHT22;13497;48.322;16.204;2023-08-31T02:06:46;15.90;99.90
25640;DHT22;13497;48.322;16.204;2023-08-31T02:09:13;16.00;99.90
25640;DHT22;13497;48.322;16.204;2023-08-31T02:11:39;15.90;99.90
25640;DHT22;13497;48.322;16.204;2023-08-31T02:14:05;15.80;99.90
25640;DHT22;13497;48.322;16.204;2023-08-31T02:16:31;15.70;99.90
25640;DHT22;13497;48.322;16.204;2023-08-31T02:18:58;15.80;99.90
25640;DHT22;13497;48.322;16.204;2023-08-31T02:21:25;15.80;99.90
25640;DHT22;13497;48.322;16.204;2023-08-31T02:23:50;15.80;99.90
25640;DHT22;13497;48.322;16.204;2023-08-31T02:32:51;15.60;99.90
25640;DHT22;13497;48.322;16.204;2023-08-31T02:35:19;15.60;99.90
25640;DHT22;13497;48.322;16.204;2023-08-31T02:37:48;15.60;99.90
25640;DHT22;13497;48.322;16.204;2023-08-31T02:40:14;15.70;99.90
25640;DHT22;13497;48.322;16.204;2023-08-31T02:42:41;15.70;99.90
25640;DHT22;13497;48.322;16.204;2023-08-31T02:45:07;15.60;99.90
25640;DHT22;13497;48.322;16.204;2023-08-31T02:47:32;15.50;99.90
25640;DHT22;13497;48.322;16.204;2023-08-31T02:49:58;15.50;99.90
25640;DHT22;13497;48.322;16.204;2023-08-31T02:52:25;15.60;99.90
25640;DHT22;13497;48.322;16.204;2023-08-31T02:54:51;15.50;99.90
25640;DHT22;13497;48.322;16.204;2023-08-31T02:57:17;15.40;99.90
25640;DHT22;13497;48.322;16.204;2023-08-31T02:59:45;15.40;99.90
25640;DHT22;13497;48.322;16.204;2023-08-31T03:02:12;15.30;99.90
25640;DHT22;13497;48.322;16.204;2023-08-31T03:04:37;15.30;99.90
25640;DHT22;13497;48.322;16.204;2023-08-31T03:07:06;15.30;99.90
25640;DHT22;13497;48.322;16.204;2023-08-31T03:09:31;15.40;99.90
25640;DHT22;13497;48.322;16.204;2023-08-31T03:11:57;15.50;99.90
25640;DHT22;13497;48.322;16.204;2023-08-31T03:14:23;15.40;99.90
25640;DHT22;13497;48.322;16.204;2023-08-31T03:16:48;15.40;99.90
25640;DHT22;13497;48.322;16.204;2023-08-31T03:19:14;15.40;99.90
25640;DHT22;13497;48.322;16.204;2023-08-31T03:21:40;15.50;99.90
25640;DHT22;13497;48.322;16.204;2023-08-31T03:24:06;15.50;99.90
25640;DHT22;13497;48.322;16.204;2023-08-31T03:26:31;15.60;99.90
25640;DHT22;13497;48.322;16.204;2023-08-31T03:28:57;15.60;99.90
25640;DHT22;13497;48.322;16.204;2023-08-31T03:31:23;15.60;99.90
25640;DHT22;13497;48.322;16.204;2023-08-31T03:33:50;15.60;99.90
25640;DHT22;13497;48.322;16.204;2023-08-31T03:36:16;15.60;99.90
25640;DHT22;13497;48.322;16.204;2023-08-31T03:38:41;15.60;99.90
25640;DHT22;13497;48.322;16.204;2023-08-31T03:41:07;15.60;99.90
25640;DHT22;13497;48.322;16.204;2023-08-31T03:43:33;15.60;99.90
25640;DHT22;13497;48.322;16.204;2023-08-31T03:46:00;15.70;99.90
25640;DHT22;13497;48.322;16.204;2023-08-31T03:48:26;15.70;99.90
25640;DHT22;13497;48.322;16.204;2023-08-31T03:50:52;15.70;99.90
25640;DHT22;13497;48.322;16.204;2023-08-31T03:53:18;15.60;99.90
25640;DHT22;13497;48.322;16.204;2023-08-31T03:55:44;15.50;99.90
25640;DHT22;13497;48.322;16.204;2023-08-31T03:58:10;15.50;99.90
25640;DHT22;13497;48.322;16.204;2023-08-31T04:00:37;15.50;99.90
25640;DHT22;13497;48.322;16.204;2023-08-31T04:03:02;15.50;99.90
25640;DHT22;13497;48.322;16.204;2023-08-31T04:05:32;15.40;99.90
25640;DHT22;13497;48.322;16.204;2023-08-31T04:07:59;15.30;99.90
25640;DHT22;13497;48.322;16.204;2023-08-31T04:10:25;15.30;99.90
25640;DHT22;13497;48.322;16.204;2023-08-31T04:12:51;15.30;99.90
25640;DHT22;13497;48.322;16.204;2023-08-31T04:15:17;15.20;99.90
25640;DHT22;13497;48.322;16.204;2023-08-31T04:17:43;15.20;99.90
25640;DHT22;13497;48.322;16.204;2023-08-31T04:20:10;15.20;99.90
25640;DHT22;13497;48.322;16.204;2023-08-31T04:22:36;15.20;99.90
25640;DHT22;13497;48.322;16.204;2023-08-31T04:25:01;15.10;99.90
25640;DHT22;13497;48.322;16.204;2023-08-31T04:27:28;15.00;99.90
25640;DHT22;13497;48.322;16.204;2023-08-31T04:29:55;15.00;99.90
25640;DHT22;13497;48.322;16.204;2023-08-31T04:32:21;15.00;99.90
25640;DHT22;13497;48.322;16.204;2023-08-31T04:34:47;15.10;99.90
25640;DHT22;13497;48.322;16.204;2023-08-31T04:37:13;15.10;99.90
25640;DHT22;13497;48.322;16.204;2023-08-31T04:39:38;15.10;99.90
25640;DHT22;13497;48.322;16.204;2023-08-31T04:42:05;15.10;99.90
25640;DHT22;13497;48.322;16.204;2023-08-31T04:44:30;15.00;99.90
25640;DHT22;13497;48.322;16.204;2023-08-31T04:46:56;15.00;99.90
25640;DHT22;13497;48.322;16.204;2023-08-31T04:49:22;15.00;99.90
25640;DHT22;13497;48.322;16.204;2023-08-31T04:51:47;15.10;99.90
25640;DHT22;13497;48.322;16.204;2023-08-31T04:54:13;15.10;99.90
25640;DHT22;13497;48.322;16.204;2023-08-31T04:56:39;15.10;99.90
25640;DHT22;13497;48.322;16.204;2023-08-31T04:59:07;15.10;99.90
25640;DHT22;13497;48.322;16.204;2023-08-31T05:01:33;15.20;99.90
25640;DHT22;13497;48.322;16.204;2023-08-31T05:03:59;15.50;99.90
25640;DHT22;13497;48.322;16.204;2023-08-31T05:06:24;15.80;99.90
25640;DHT22;13497;48.322;16.204;2023-08-31T05:08:50;16.30;99.90
25640;DHT22;13497;48.322;16.204;2023-08-31T05:11:16;16.80;99.90
25640;DHT22;13497;48.322;16.204;2023-08-31T05:13:42;17.00;99.90
25640;DHT22;13497;48.322;16.204;2023-08-31T05:16:09;17.30;99.90
25640;DHT22;13497;48.322;16.204;2023-08-31T05:18:38;17.90;99.90
25640;DHT22;13497;48.322;16.204;2023-08-31T05:21:06;18.90;99.90
25640;DHT22;13497;48.322;16.204;2023-08-31T05:23:31;19.60;99.90
25640;DHT22;13497;48.322;16.204;2023-08-31T05:25:58;20.20;99.90
25640;DHT22;13497;48.322;16.204;2023-08-31T05:28:23;20.80;99.90
25640;DHT22;13497;48.322;16.204;2023-08-31T05:30:55;21.50;99.90
25640;DHT22;13497;48.322;16.204;2023-08-31T05:33:21;21.80;99.90
25640;DHT22;13497;48.322;16.204;2023-08-31T05:35:54;21.90;99.90
25640;DHT22;13497;48.322;16.204;2023-08-31T05:38:21;21.60;99.90
25640;DHT22;13497;48.322;16.204;2023-08-31T05:40:47;21.50;99.90
25640;DHT22;13497;48.322;16.204;2023-08-31T05:43:13;21.70;99.90
25640;DHT22;13497;48.322;16.204;2023-08-31T05:45:39;21.60;99.90
25640;DHT22;13497;48.322;16.204;2023-08-31T05:48:05;21.60;99.90
25640;DHT22;13497;48.322;16.204;2023-08-31T05:50:31;21.50;99.90
25640;DHT22;13497;48.322;16.204;2023-08-31T05:52:58;21.10;99.90
25640;DHT22;13497;48.322;16.204;2023-08-31T05:55:24;20.30;99.90
25640;DHT22;13497;48.322;16.204;2023-08-31T05:57:49;19.70;99.90
25640;DHT22;13497;48.322;16.204;2023-08-31T06:00:16;19.20;99.90
25640;DHT22;13497;48.322;16.204;2023-08-31T06:02:42;19.00;99.90
25640;DHT22;13497;48.322;16.204;2023-08-31T06:05:10;18.90;99.90
25640;DHT22;13497;48.322;16.204;2023-08-31T06:07:38;18.80;99.90
25640;DHT22;13497;48.322;16.204;2023-08-31T06:10:06;18.80;99.90
25640;DHT22;13497;48.322;16.204;2023-08-31T06:12:32;18.90;99.90
25640;DHT22;13497;48.322;16.204;2023-08-31T06:14:58;18.90;99.90
25640;DHT22;13497;48.322;16.204;2023-08-31T06:17:23;19.20;99.90
25640;DHT22;13497;48.322;16.204;2023-08-31T06:19:49;19.30;99.90
25640;DHT22;13497;48.322;16.204;2023-08-31T06:22:14;19.20;99.90
25640;DHT22;13497;48.322;16.204;2023-08-31T06:24:40;19.10;99.90
25640;DHT22;13497;48.322;16.204;2023-08-31T06:27:07;19.00;99.90
25640;DHT22;13497;48.322;16.204;2023-08-31T06:29:33;19.00;99.90
25640;DHT22;13497;48.322;16.204;2023-08-31T06:31:58;19.00;99.90
25640;DHT22;13497;48.322;16.204;2023-08-31T06:34:24;19.00;99.90
25640;DHT22;13497;48.322;16.204;2023-08-31T06:36:50;19.00;99.90
25640;DHT22;13497;48.322;16.204;2023-08-31T06:39:16;18.90;99.90
25640;DHT22;13497;48.322;16.204;2023-08-31T06:41:41;18.80;99.90
25640;DHT22;13497;48.322;16.204;2023-08-31T06:44:07;18.60;99.90
25640;DHT22;13497;48.322;16.204;2023-08-31T06:46:33;18.50;99.90
25640;DHT22;13497;48.322;16.204;2023-08-31T06:49:06;18.50;99.90
25640;DHT22;13497;48.322;16.204;2023-08-31T06:51:33;18.50;99.90
25640;DHT22;13497;48.322;16.204;2023-08-31T06:53:58;18.50;99.90
25640;DHT22;13497;48.322;16.204;2023-08-31T06:56:35;18.50;99.90
25640;DHT22;13497;48.322;16.204;2023-08-31T06:59:01;18.70;99.90
25640;DHT22;13497;48.322;16.204;2023-08-31T07:01:28;18.90;99.90
25640;DHT22;13497;48.322;16.204;2023-08-31T07:03:55;19.00;99.90
25640;DHT22;13497;48.322;16.204;2023-08-31T07:06:20;19.20;99.90
25640;DHT22;13497;48.322;16.204;2023-08-31T07:08:46;19.30;99.90
25640;DHT22;13497;48.322;16.204;2023-08-31T07:11:13;19.30;99.90
25640;DHT22;13497;48.322;16.204;2023-08-31T07:13:39;19.20;99.90
25640;DHT22;13497;48.322;16.204;2023-08-31T07:16:05;19.20;99.90
25640;DHT22;13497;48.322;16.204;2023-08-31T07:18:31;19.00;99.90
25640;DHT22;13497;48.322;16.204;2023-08-31T07:20:57;19.00;99.90
25640;DHT22;13497;48.322;16.204;2023-08-31T07:23:23;18.90;99.90
25640;DHT22;13497;48.322;16.204;2023-08-31T07:25:48;18.90;99.90
25640;DHT22;13497;48.322;16.204;2023-08-31T07:28:14;18.90;99.90
25640;DHT22;13497;48.322;16.204;2023-08-31T07:30:40;19.00;99.90
25640;DHT22;13497;48.322;16.204;2023-08-31T07:33:07;19.10;99.90
25640;DHT22;13497;48.322;16.204;2023-08-31T07:35:32;19.00;99.90
25640;DHT22;13497;48.322;16.204;2023-08-31T07:37:58;18.90;99.90
25640;DHT22;13497;48.322;16.204;2023-08-31T07:40:23;19.10;99.90
25640;DHT22;13497;48.322;16.204;2023-08-31T07:42:50;19.30;99.90
25640;DHT22;13497;48.322;16.204;2023-08-31T07:45:17;19.40;99.90
25640;DHT22;13497;48.322;16.204;2023-08-31T07:47:43;19.70;99.90
25640;DHT22;13497;48.322;16.204;2023-08-31T07:50:09;19.80;99.90
25640;DHT22;13497;48.322;16.204;2023-08-31T07:52:35;19.90;99.90
25640;DHT22;13497;48.322;16.204;2023-08-31T07:55:01;19.90;99.90
25640;DHT22;13497;48.322;16.204;2023-08-31T07:57:27;19.90;99.90
25640;DHT22;13497;48.322;16.204;2023-08-31T07:59:53;20.00;99.90
25640;DHT22;13497;48.322;16.204;2023-08-31T08:02:19;20.00;99.90
25640;DHT22;13497;48.322;16.204;2023-08-31T08:04:45;20.00;99.90
25640;DHT22;13497;48.322;16.204;2023-08-31T08:07:11;20.00;99.90
25640;DHT22;13497;48.322;16.204;2023-08-31T08:09:37;20.00;99.90
25640;DHT22;13497;48.322;16.204;2023-08-31T08:12:03;19.80;99.90
25640;DHT22;13497;48.322;16.204;2023-08-31T08:14:29;20.00;99.90
25640;DHT22;13497;48.322;16.204;2023-08-31T08:16:55;20.10;99.90
25640;DHT22;13497;48.322;16.204;2023-08-31T08:19:24;20.20;99.90
25640;DHT22;13497;48.322;16.204;2023-08-31T08:21:50;20.20;99.90
25640;DHT22;13497;48.322;16.204;2023-08-31T08:24:16;20.30;99.90
25640;DHT22;13497;48.322;16.204;2023-08-31T08:26:42;20.40;99.90
25640;DHT22;13497;48.322;16.204;2023-08-31T08:29:08;20.70;99.90
25640;DHT22;13497;48.322;16.204;2023-08-31T08:31:34;20.90;99.90
25640;DHT22;13497;48.322;16.204;2023-08-31T08:33:59;21.10;99.90
25640;DHT22;13497;48.322;16.204;2023-08-31T08:36:26;21.20;99.90
25640;DHT22;13497;48.322;16.204;2023-08-31T08:38:51;21.10;99.90
25640;DHT22;13497;48.322;16.204;2023-08-31T08:41:23;21.10;99.90
25640;DHT22;13497;48.322;16.204;2023-08-31T08:43:51;21.10;99.90
25640;DHT22;13497;48.322;16.204;2023-08-31T08:46:17;21.10;99.90
25640;DHT22;13497;48.322;16.204;2023-08-31T08:48:44;21.20;99.90
25640;DHT22;13497;48.322;16.204;2023-08-31T08:51:12;21.40;99.90
25640;DHT22;13497;48.322;16.204;2023-08-31T08:53:43;21.40;99.90
25640;DHT22;13497;48.322;16.204;2023-08-31T08:56:08;21.30;99.90
25640;DHT22;13497;48.322;16.204;2023-08-31T08:58:34;21.30;99.90
25640;DHT22;13497;48.322;16.204;2023-08-31T09:01:01;21.40;99.90
25640;DHT22;13497;48.322;16.204;2023-08-31T09:03:27;21.40;99.90
25640;DHT22;13497;48.322;16.204;2023-08-31T09:05:53;21.40;99.90
25640;DHT22;13497;48.322;16.204;2023-08-31T09:08:26;21.40;99.90
25640;DHT22;13497;48.322;16.204;2023-08-31T09:10:54;21.30;99.90
25640;DHT22;13497;48.322;16.204;2023-08-31T09:13:20;21.40;99.90
25640;DHT22;13497;48.322;16.204;2023-08-31T09:15:48;21.70;99.90
25640;DHT22;13497;48.322;16.204;2023-08-31T09:18:25;21.60;99.90
25640;DHT22;13497;48.322;16.204;2023-08-31T09:20:52;21.40;99.90
25640;DHT22;13497;48.322;16.204;2023-08-31T09:23:18;21.30;99.90
25640;DHT22;13497;48.322;16.204;2023-08-31T09:28:13;21.10;99.90
25640;DHT22;13497;48.322;16.204;2023-08-31T09:30:39;21.30;99.90
25640;DHT22;13497;48.322;16.204;2023-08-31T09:33:13;21.50;99.90
25640;DHT22;13497;48.322;16.204;2023-08-31T09:35:53;21.40;99.90
25640;DHT22;13497;48.322;16.204;2023-08-31T09:38:19;21.50;99.90
25640;DHT22;13497;48.322;16.204;2023-08-31T09:40:45;21.50;99.90
25640;DHT22;13497;48.322;16.204;2023-08-31T09:43:11;21.50;99.90
25640;DHT22;13497;48.322;16.204;2023-08-31T09:45:37;21.50;99.90
25640;DHT22;13497;48.322;16.204;2023-08-31T09:48:05;21.60;99.90
25640;DHT22;13497;48.322;16.204;2023-08-31T09:50:32;21.60;99.90
25640;DHT22;13497;48.322;16.204;2023-08-31T09:53:02;21.60;99.60
25640;DHT22;13497;48.322;16.204;2023-08-31T09:55:30;21.60;99.70
25640;DHT22;13497;48.322;16.204;2023-08-31T09:57:59;21.60;99.40
25640;DHT22;13497;48.322;16.204;2023-08-31T10:00:27;21.50;99.70
25640;DHT22;13497;48.322;16.204;2023-08-31T10:03:03;21.60;99.80
25640;DHT22;13497;48.322;16.204;2023-08-31T10:05:30;21.60;99.90
25640;DHT22;13497;48.322;16.204;2023-08-31T10:07:57;21.80;99.10
25640;DHT22;13497;48.322;16.204;2023-08-31T10:10:24;21.50;98.90
25640;DHT22;13497;48.322;16.204;2023-08-31T10:12:50;21.40;99.30
25640;DHT22;13497;48.322;16.204;2023-08-31T10:15:18;21.40;99.50
25640;DHT22;13497;48.322;16.204;2023-08-31T10:17:45;21.40;99.20
25640;DHT22;13497;48.322;16.204;2023-08-31T10:20:16;21.40;99.80
25640;DHT22;13497;48.322;16.204;2023-08-31T10:22:43;21.40;99.60
25640;DHT22;13497;48.322;16.204;2023-08-31T10:25:09;21.40;99.60
25640;DHT22;13497;48.322;16.204;2023-08-31T10:49:20;22.30;97.70
25640;DHT22;13497;48.322;16.204;2023-08-31T10:51:49;22.60;97.40
25640;DHT22;13497;48.322;16.204;2023-08-31T10:54:25;22.90;97.60
25640;DHT22;13497;48.322;16.204;2023-08-31T10:56:52;23.00;96.50
25640;DHT22;13497;48.322;16.204;2023-08-31T10:59:40;22.90;96.50
25640;DHT22;13497;48.322;16.204;2023-08-31T11:02:06;22.70;96.30
25640;DHT22;13497;48.322;16.204;2023-08-31T11:04:52;22.50;96.40
25640;DHT22;13497;48.322;16.204;2023-08-31T11:07:19;22.40;96.20
25640;DHT22;13497;48.322;16.204;2023-08-31T11:09:46;22.30;95.50
25640;DHT22;13497;48.322;16.204;2023-08-31T11:12:12;22.50;95.60
25640;DHT22;13497;48.322;16.204;2023-08-31T11:14:39;22.50;95.00
25640;DHT22;13497;48.322;16.204;2023-08-31T11:17:05;22.60;95.20
25640;DHT22;13497;48.322;16.204;2023-08-31T11:19:35;22.60;95.80
25640;DHT22;13497;48.322;16.204;2023-08-31T11:22:02;22.80;95.40
25640;DHT22;13497;48.322;16.204;2023-08-31T11:24:32;23.00;95.10
25640;DHT22;13497;48.322;16.204;2023-08-31T11:26:58;22.90;94.60
25640;DHT22;13497;48.322;16.204;2023-08-31T11:29:24;22.80;93.80
25640;DHT22;13497;48.322;16.204;2023-08-31T11:31:50;22.80;93.80
25640;DHT22;13497;48.322;16.204;2023-08-31T11:34:17;23.00;94.40
25640;DHT22;13497;48.322;16.204;2023-08-31T11:36:44;23.00;94.60
25640;DHT22;13497;48.322;16.204;2023-08-31T11:39:12;22.90;93.80
25640;DHT22;13497;48.322;16.204;2023-08-31T11:41:38;22.50;94.30
25640;DHT22;13497;48.322;16.204;2023-08-31T11:44:12;22.50;94.50
25640;DHT22;13497;48.322;16.204;2023-08-31T11:46:40;22.50;94.60
25640;DHT22;13497;48.322;16.204;2023-08-31T11:49:07;22.60;94.20
25640;DHT22;13497;48.322;16.204;2023-08-31T11:51:34;22.80;94.30
25640;DHT22;13497;48.322;16.204;2023-08-31T11:54:03;23.10;94.20
25640;DHT22;13497;48.322;16.204;2023-08-31T11:56:46;23.40;94.00
25640;DHT22;13497;48.322;16.204;2023-08-31T11:59:19;23.40;93.90
25640;DHT22;13497;48.322;16.204;2023-08-31T12:01:47;23.50;94.00
25640;DHT22;13497;48.322;16.204;2023-08-31T12:04:20;23.50;94.10
25640;DHT22;13497;48.322;16.204;2023-08-31T12:06:46;23.60;94.00
25640;DHT22;13497;48.322;16.204;2023-08-31T12:09:15;23.30;93.20
25640;DHT22;13497;48.322;16.204;2023-08-31T12:11:41;23.00;93.20
25640;DHT22;13497;48.322;16.204;2023-08-31T12:14:23;22.90;93.50
25640;DHT22;13497;48.322;16.204;2023-08-31T12:16:51;22.80;93.30
25640;DHT22;13497;48.322;16.204;2023-08-31T12:19:17;23.00;93.60
25640;DHT22;13497;48.322;16.204;2023-08-31T12:21:45;23.00;93.40
25640;DHT22;13497;48.322;16.204;2023-08-31T12:24:11;22.90;93.60
25640;DHT22;13497;48.322;16.204;2023-08-31T12:26:37;22.60;93.60
25640;DHT22;13497;48.322;16.204;2023-08-31T12:29:04;22.60;93.70
25640;DHT22;13497;48.322;16.204;2023-08-31T12:31:33;22.50;93.60
25640;DHT22;13497;48.322;16.204;2023-08-31T12:33:59;22.60;93.90
25640;DHT22;13497;48.322;16.204;2023-08-31T12:36:32;22.70;93.20
25640;DHT22;13497;48.322;16.204;2023-08-31T12:38:58;22.80;93.00
25640;DHT22;13497;48.322;16.204;2023-08-31T12:41:27;22.70;92.60
25640;DHT22;13497;48.322;16.204;2023-08-31T12:43:54;22.90;92.70
25640;DHT22;13497;48.322;16.204;2023-08-31T12:46:19;23.10;92.90
25640;DHT22;13497;48.322;16.204;2023-08-31T12:48:45;23.10;93.10
25640;DHT22;13497;48.322;16.204;2023-08-31T12:51:11;23.20;92.80
25640;DHT22;13497;48.322;16.204;2023-08-31T12:53:39;23.00;93.30
25640;DHT22;13497;48.322;16.204;2023-08-31T12:56:05;22.70;93.30
25640;DHT22;13497;48.322;16.204;2023-08-31T12:58:32;22.40;93.30
25640;DHT22;13497;48.322;16.204;2023-08-31T13:00:58;22.20;93.80
25640;DHT22;13497;48.322;16.204;2023-08-31T13:03:24;22.00;93.70
25640;DHT22;13497;48.322;16.204;2023-08-31T13:05:50;21.90;94.20
25640;DHT22;13497;48.322;16.204;2023-08-31T13:08:16;22.00;94.40
25640;DHT22;13497;48.322;16.204;2023-08-31T13:10:42;22.20;94.10
25640;DHT22;13497;48.322;16.204;2023-08-31T13:13:09;22.30;94.10
25640;DHT22;13497;48.322;16.204;2023-08-31T13:15:35;22.30;93.70
25640;DHT22;13497;48.322;16.204;2023-08-31T13:18:00;22.40;93.60
25640;DHT22;13497;48.322;16.204;2023-08-31T13:20:26;22.50;93.20
25640;DHT22;13497;48.322;16.204;2023-08-31T13:22:58;22.60;92.90
25640;DHT22;13497;48.322;16.204;2023-08-31T13:25:24;22.60;92.70
25640;DHT22;13497;48.322;16.204;2023-08-31T13:27:49;22.50;92.90
25640;DHT22;13497;48.322;16.204;2023-08-31T13:30:15;22.40;93.00
25640;DHT22;13497;48.322;16.204;2023-08-31T13:32:41;22.40;92.60
25640;DHT22;13497;48.322;16.204;2023-08-31T13:35:07;22.50;92.80
25640;DHT22;13497;48.322;16.204;2023-08-31T13:37:33;22.50;92.30
25640;DHT22;13497;48.322;16.204;2023-08-31T13:39:59;22.60;92.00
25640;DHT22;13497;48.322;16.204;2023-08-31T13:42:26;22.60;91.60
25640;DHT22;13497;48.322;16.204;2023-08-31T13:44:52;22.60;92.00
25640;DHT22;13497;48.322;16.204;2023-08-31T13:47:17;22.60;91.50
25640;DHT22;13497;48.322;16.204;2023-08-31T13:49:43;22.70;91.70
25640;DHT22;13497;48.322;16.204;2023-08-31T13:52:09;22.60;91.50
25640;DHT22;13497;48.322;16.204;2023-08-31T13:54:36;22.70;91.80
25640;DHT22;13497;48.322;16.204;2023-08-31T13:57:02;22.60;92.00
25640;DHT22;13497;48.322;16.204;2023-08-31T13:59:28;22.70;92.00
25640;DHT22;13497;48.322;16.204;2023-08-31T14:01:54;22.70;91.50
25640;DHT22;13497;48.322;16.204;2023-08-31T14:04:20;22.60;92.00
25640;DHT22;13497;48.322;16.204;2023-08-31T14:06:47;22.60;91.60
25640;DHT22;13497;48.322;16.204;2023-08-31T14:09:14;22.60;91.60
25640;DHT22;13497;48.322;16.204;2023-08-31T14:11:40;22.60;91.40
25640;DHT22;13497;48.322;16.204;2023-08-31T14:14:06;22.60;91.30
25640;DHT22;13497;48.322;16.204;2023-08-31T14:16:35;22.70;91.50
25640;DHT22;13497;48.322;16.204;2023-08-31T14:19:03;22.60;91.80
25640;DHT22;13497;48.322;16.204;2023-08-31T14:21:29;22.50;91.80
25640;DHT22;13497;48.322;16.204;2023-08-31T14:23:55;22.60;91.50
25640;DHT22;13497;48.322;16.204;2023-08-31T14:26:25;22.80;91.60
25640;DHT22;13497;48.322;16.204;2023-08-31T14:28:53;22.80;91.10
25640;DHT22;13497;48.322;16.204;2023-08-31T14:31:19;22.70;91.20
25640;DHT22;13497;48.322;16.204;2023-08-31T14:33:45;22.60;91.20
25640;DHT22;13497;48.322;16.204;2023-08-31T14:36:13;22.50;90.90
25640;DHT22;13497;48.322;16.204;2023-08-31T14:38:39;22.50;91.20
25640;DHT22;13497;48.322;16.204;2023-08-31T14:41:04;22.50;91.30
25640;DHT22;13497;48.322;16.204;2023-08-31T14:43:35;22.50;91.80
25640;DHT22;13497;48.322;16.204;2023-08-31T14:46:00;22.50;90.60
25640;DHT22;13497;48.322;16.204;2023-08-31T14:48:27;22.50;91.20
25640;DHT22;13497;48.322;16.204;2023-08-31T14:50:54;22.60;91.30
25640;DHT22;13497;48.322;16.204;2023-08-31T14:53:20;22.60;91.50
25640;DHT22;13497;48.322;16.204;2023-08-31T14:55:49;22.60;91.20
25640;DHT22;13497;48.322;16.204;2023-08-31T14:58:15;22.50;91.30
25640;DHT22;13497;48.322;16.204;2023-08-31T15:00:40;22.40;91.60
25640;DHT22;13497;48.322;16.204;2023-08-31T15:03:06;22.40;91.90
25640;DHT22;13497;48.322;16.204;2023-08-31T15:05:32;22.50;91.30
25640;DHT22;13497;48.322;16.204;2023-08-31T15:07:57;22.50;91.50
25640;DHT22;13497;48.322;16.204;2023-08-31T15:10:23;22.50;91.80
25640;DHT22;13497;48.322;16.204;2023-08-31T15:12:49;22.40;91.60
25640;DHT22;13497;48.322;16.204;2023-08-31T15:15:16;22.30;91.80
25640;DHT22;13497;48.322;16.204;2023-08-31T15:17:42;22.40;90.90
25640;DHT22;13497;48.322;16.204;2023-08-31T15:20:08;22.30;90.80
25640;DHT22;13497;48.322;16.204;2023-08-31T15:22:34;22.20;91.40
25640;DHT22;13497;48.322;16.204;2023-08-31T15:25:00;22.10;90.90
25640;DHT22;13497;48.322;16.204;2023-08-31T15:27:25;22.20;91.20
25640;DHT22;13497;48.322;16.204;2023-08-31T15:29:51;22.10;91.30
25640;DHT22;13497;48.322;16.204;2023-08-31T15:32:17;22.10;90.90
25640;DHT22;13497;48.322;16.204;2023-08-31T15:34:45;22.10;91.10
25640;DHT22;13497;48.322;16.204;2023-08-31T15:37:11;22.00;91.30
25640;DHT22;13497;48.322;16.204;2023-08-31T15:39:38;21.90;91.30
25640;DHT22;13497;48.322;16.204;2023-08-31T15:42:04;21.90;91.50
25640;DHT22;13497;48.322;16.204;2023-08-31T15:44:29;22.00;91.90
25640;DHT22;13497;48.322;16.204;2023-08-31T15:46:55;22.10;91.50
25640;DHT22;13497;48.322;16.204;2023-08-31T15:49:22;22.10;91.40
25640;DHT22;13497;48.322;16.204;2023-08-31T15:51:47;21.90;91.60